createdAt,value
2022-08-05T03:54:59.406Z,100307.25
2022-08-05T03:56:33.121Z,100304.06
2022-08-05T03:59:47.042Z,100311.91
2022-08-05T04:02:58.942Z,100309.72
2022-08-05T04:06:03.255Z,100310.66
2022-08-05T04:09:06.695Z,100316.06
2022-08-05T04:12:23.611Z,100315.06
2022-08-05T04:15:33.211Z,100310.75
2022-08-05T04:18:39.050Z,100322.37
2022-08-05T04:22:10.006Z,100314.41
2022-08-05T04:25:05.049Z,100316.22
2022-08-05T04:28:11.098Z,100318.78
2022-08-05T04:31:15.222Z,100317.94
2022-08-05T04:34:32.512Z,100307.16
2022-08-05T04:38:01.062Z,100314.97
2022-08-05T04:40:58.778Z,100314.59
2022-08-05T04:44:01.153Z,100308.63
2022-08-05T04:47:15.735Z,100317.38
2022-08-05T04:50:37.199Z,100319.63
2022-08-05T04:53:40.184Z,100310.06
2022-08-05T04:56:42.588Z,100317.75
2022-08-05T04:59:48.148Z,100322.94
2022-08-05T05:02:50.792Z,100312.81
2022-08-05T05:06:40.440Z,100323.09
2022-08-05T05:09:17.618Z,100323.56
2022-08-05T05:12:20.341Z,100314.31
2022-08-05T05:16:02.353Z,100304.97
2022-08-05T05:19:08.886Z,100309.75
2022-08-05T05:22:23.570Z,100310.09
2022-08-05T05:25:32.941Z,100308.47
2022-08-05T05:28:45.118Z,100314.25
2022-08-05T05:31:47.407Z,100305.97
2022-08-05T05:34:50.098Z,100305.78
2022-08-05T05:37:59.455Z,100298.91
2022-08-05T05:41:03.116Z,100302.38
2022-08-05T05:44:05.833Z,100304.03
2022-08-05T05:47:30.631Z,100309.00
2022-08-05T05:50:52.334Z,100303.34
2022-08-05T05:53:58.821Z,100300.28
2022-08-05T05:57:01.310Z,100297.94
2022-08-05T06:00:07.658Z,100294.78
2022-08-05T06:03:39.644Z,100288.37
2022-08-05T06:06:36.878Z,100296.06
2022-08-05T06:09:59.985Z,100286.62
2022-08-05T06:13:05.217Z,100292.34
2022-08-05T06:16:28.239Z,100281.22
2022-08-05T06:19:34.986Z,100287.47
2022-08-05T06:22:37.810Z,100284.03
2022-08-05T06:26:13.208Z,100293.72
2022-08-05T06:29:23.514Z,100289.09
2022-08-05T06:32:28.662Z,100287.94
2022-08-05T06:36:03.643Z,100288.56
2022-08-05T06:38:54.667Z,100291.97
2022-08-05T06:41:59.010Z,100287.03
2022-08-05T06:45:05.230Z,100286.59
2022-08-05T06:48:36.111Z,100291.34
2022-08-05T06:51:33.276Z,100289.09
2022-08-05T06:54:35.970Z,100290.06
2022-08-05T06:58:03.092Z,100286.91
2022-08-05T07:01:06.184Z,100287.53
2022-08-05T07:04:08.840Z,100286.97
2022-08-05T07:07:11.148Z,100279.41
2022-08-05T07:10:17.638Z,100289.81
2022-08-05T07:13:57.550Z,100287.47
2022-08-05T07:17:56.658Z,100285.97
2022-08-05T07:20:33.484Z,100298.44
2022-08-05T07:23:37.401Z,100284.94
2022-08-05T07:26:51.735Z,100279.41
2022-08-05T07:30:27.918Z,100284.03
2022-08-05T07:33:16.984Z,100287.38
2022-08-05T07:36:20.856Z,100279.50
2022-08-05T07:39:24.831Z,100282.84
2022-08-05T07:42:46.254Z,100276.34
2022-08-05T07:45:57.612Z,100274.34
2022-08-05T07:49:05.992Z,100272.72
2022-08-05T07:52:09.896Z,100269.75
2022-08-05T07:55:44.564Z,100272.94
2022-08-05T07:58:55.048Z,100268.16
2022-08-05T08:01:57.488Z,100270.69
2022-08-05T08:05:00.995Z,100279.25
2022-08-05T08:08:03.148Z,100269.41
2022-08-05T08:11:09.005Z,100269.59
2022-08-05T08:14:18.950Z,100270.09
2022-08-05T08:17:22.055Z,100272.31
2022-08-05T08:21:00.108Z,100263.56
2022-08-05T08:24:03.356Z,100259.81
2022-08-05T08:27:07.459Z,100263.47
2022-08-05T08:30:18.860Z,100264.91
2022-08-05T08:33:29.085Z,100262.47
2022-08-05T08:36:49.086Z,100262.28
2022-08-05T08:39:54.764Z,100262.16
2022-08-05T08:42:57.443Z,100261.50
2022-08-05T08:46:20.761Z,100269.62
2022-08-05T08:50:12.950Z,100252.72
2022-08-05T08:52:53.033Z,100263.16
2022-08-05T08:56:02.587Z,100263.00
2022-08-05T08:59:14.889Z,100255.25
2022-08-05T09:02:26.630Z,100248.41
2022-08-05T09:05:38.324Z,100252.62
2022-08-05T09:08:51.557Z,100245.72
2022-08-05T09:12:00.182Z,100249.72
2022-08-05T09:15:06.787Z,100246.91
2022-08-05T09:18:10.347Z,100243.00
2022-08-05T09:21:20.699Z,100237.19
2022-08-05T09:24:38.663Z,100239.34
2022-08-05T09:28:05.338Z,100231.69
2022-08-05T09:31:43.241Z,100238.28
2022-08-05T09:34:55.129Z,100240.84
2022-08-05T09:38:16.885Z,100228.06
2022-08-05T09:41:20.959Z,100217.22
2022-08-05T09:44:50.467Z,100213.19
2022-08-05T09:47:56.237Z,100218.31
